Time;durP1;ratioP1;P1;durP2;ratioP2;P2;SDS_P1;SDS_P2;PMS_P1;PMS_P2;Temp;Humidity;BMP_temperature;BMP_pressure;BME280_temperature;BME280_humidity;BME280_pressure;Samples;Min_cycle;Max_cycle;Signal;HPM_P1;HPM_P2
2021/05/03 04:22:25;;;;;;;6.45;1.08;;;4.50;90.20;;;;;;5040080;28;20114;-68
2021/05/03 04:27:17;;;;;;;3.35;0.80;;;6.50;66.50;;;;;;5066430;28;20037;-69
2021/05/03 04:29:43;;;;;;;3.33;0.90;;;6.30;65.90;;;;;;5067314;28;20044;-66
2021/05/03 04:32:08;;;;;;;1.08;0.73;;;6.30;65.80;;;;;;5068451;28;20114;-66
2021/05/03 04:34:34;;;;;;;1.83;0.82;;;6.40;65.60;;;;;;5070198;28;20076;-68
2021/05/03 04:37:00;;;;;;;7.03;0.90;;;6.60;65.60;;;;;;5065622;28;20048;-76
2021/05/03 04:39:25;;;;;;;2.35;0.90;;;6.90;64.30;;;;;;5068503;28;20233;-72
2021/05/03 04:41:51;;;;;;;2.45;0.70;;;7.00;64.00;;;;;;5063542;28;20543;-72
2021/05/03 04:44:17;;;;;;;4.15;0.80;;;7.30;63.20;;;;;;5061712;28;20040;-72
2021/05/03 04:46:42;;;;;;;4.20;1.00;;;7.40;61.90;;;;;;5063414;28;20112;-72
2021/05/03 04:49:08;;;;;;;1.50;0.73;;;7.60;61.20;;;;;;5065934;28;20024;-70
2021/05/03 04:51:34;;;;;;;1.35;0.57;;;7.80;61.00;;;;;;5064891;28;20128;-68
2021/05/03 04:54:00;;;;;;;7.57;0.80;;;8.10;63.60;;;;;;5067032;28;20104;-69
2021/05/03 04:56:25;;;;;;;2.03;0.70;;;8.90;67.00;;;;;;5051345;28;20403;-68
2021/05/03 04:58:51;;;;;;;2.28;0.93;;;9.60;64.50;;;;;;5048998;28;20033;-68
2021/05/03 05:01:17;;;;;;;2.47;0.70;;;10.10;64.90;;;;;;5047159;28;20036;-67
2021/05/03 05:03:42;;;;;;;6.55;0.95;;;10.80;68.00;;;;;;5048460;28;20033;-67
2021/05/03 05:06:09;;;;;;;5.35;0.68;;;12.20;66.70;;;;;;5050781;28;20013;-67
2021/05/03 05:08:35;;;;;;;1.63;0.70;;;13.20;63.20;;;;;;5049239;28;20088;-68
2021/05/03 05:11:01;;;;;;;2.22;0.52;;;14.10;60.90;;;;;;5032774;28;20025;-68
2021/05/03 05:13:26;;;;;;;3.75;0.70;;;14.50;57.80;;;;;;5044675;28;20385;-73
2021/05/03 05:15:52;;;;;;;3.03;0.60;;;14.20;50.10;;;;;;5045601;28;20492;-72
2021/05/03 05:18:18;;;;;;;9.13;0.90;;;13.30;49.60;;;;;;5047174;28;20026;-72
2021/05/03 05:20:44;;;;;;;2.85;0.80;;;12.70;50.50;;;;;;5043269;28;20025;-73
2021/05/03 05:23:09;;;;;;;5.05;1.38;;;12.50;50.20;;;;;;5047865;28;20065;-72
2021/05/03 05:25:35;;;;;;;3.60;0.60;;;12.40;50.90;;;;;;5051791;28;20013;-72
2021/05/03 05:28:02;;;;;;;0.82;0.40;;;12.60;51.80;;;;;;5043764;28;20036;-70
2021/05/03 05:30:27;;;;;;;0.43;0.40;;;12.70;50.30;;;;;;5041564;28;20494;-70
2021/05/03 05:32:53;;;;;;;1.02;0.52;;;12.70;50.30;;;;;;5053980;28;20116;-69
2021/05/03 05:35:19;;;;;;;0.93;0.47;;;12.90;49.90;;;;;;5054016;28;20386;-69
2021/05/03 05:37:45;;;;;;;5.18;0.63;;;13.10;49.50;;;;;;5037979;28;20025;-69
2021/05/03 05:40:11;;;;;;;0.75;0.50;;;13.10;49.30;;;;;;5036110;28;20025;-69
2021/05/03 05:42:37;;;;;;;21.85;1.98;;;13.20;49.00;;;;;;5042970;28;20560;-69
2021/05/03 05:45:03;;;;;;;1.17;0.60;;;13.30;49.00;;;;;;5035376;28;20117;-69
2021/05/03 05:47:29;;;;;;;0.60;0.60;;;13.40;48.90;;;;;;5047546;28;20021;-69
2021/05/03 05:49:55;;;;;;;1.77;0.80;;;13.50;48.70;;;;;;5042150;28;20587;-70
2021/05/03 05:52:22;;;;;;;2.10;0.80;;;13.60;48.20;;;;;;5053398;28;20481;-69
2021/05/03 05:54:48;;;;;;;1.77;0.50;;;13.70;47.80;;;;;;5046199;28;20436;-70
2021/05/03 05:57:14;;;;;;;0.75;0.52;;;13.70;47.20;;;;;;5033500;28;20040;-69
2021/05/03 05:59:40;;;;;;;1.42;0.80;;;13.80;47.40;;;;;;5050864;28;20088;-69
2021/05/03 06:02:05;;;;;;;3.03;0.55;;;13.80;47.30;;;;;;5034727;28;20033;-69
2021/05/03 06:04:32;;;;;;;0.98;0.50;;;13.80;47.70;;;;;;5041629;28;20025;-69
2021/05/03 06:06:59;;;;;;;0.73;0.47;;;13.80;47.10;;;;;;5035714;28;20021;-69
2021/05/03 06:09:24;;;;;;;1.45;0.70;;;13.90;47.60;;;;;;5040245;28;20032;-74
2021/05/03 06:11:50;;;;;;;10.30;0.88;;;13.70;47.00;;;;;;5036520;28;20033;-72
2021/05/03 06:14:16;;;;;;;1.73;0.60;;;13.70;47.70;;;;;;5045082;28;20052;-71
2021/05/03 06:16:42;;;;;;;1.30;0.43;;;13.90;48.10;;;;;;5053428;28;20031;-69
2021/05/03 06:19:08;;;;;;;0.98;0.50;;;14.00;47.40;;;;;;5049309;28;20028;-64
2021/05/03 06:21:33;;;;;;;1.05;0.40;;;13.80;47.70;;;;;;5043446;28;20029;-68
2021/05/03 06:23:59;;;;;;;1.08;0.57;;;14.10;48.40;;;;;;5049116;28;20495;-69
2021/05/03 06:26:25;;;;;;;0.90;0.50;;;13.90;46.70;;;;;;5038870;28;20030;-68
2021/05/03 06:28:51;;;;;;;1.13;0.47;;;13.70;47.00;;;;;;5032430;28;20394;-73
2021/05/03 06:31:19;;;;;;;0.88;0.50;;;13.60;47.20;;;;;;5032339;28;20070;-70
2021/05/03 06:33:45;;;;;;;0.93;0.52;;;13.60;47.10;;;;;;5033027;28;20033;-72
2021/05/03 06:36:11;;;;;;;5.38;0.70;;;13.60;46.60;;;;;;5045396;28;20024;-68
2021/05/03 06:38:36;;;;;;;3.50;0.63;;;13.60;46.70;;;;;;5052288;28;20021;-69
2021/05/03 06:41:02;;;;;;;1.52;0.50;;;13.50;46.60;;;;;;5052085;28;20025;-71
2021/05/03 06:43:28;;;;;;;1.40;0.60;;;13.50;46.50;;;;;;5052028;28;20029;-71
2021/05/03 06:45:56;;;;;;;1.08;0.40;;;13.40;46.40;;;;;;5052717;28;20395;-71
2021/05/03 06:48:23;;;;;;;0.85;0.47;;;13.30;46.40;;;;;;5052025;28;20495;-72
2021/05/03 06:50:48;;;;;;;0.70;0.50;;;13.30;46.50;;;;;;5052039;28;20468;-71
2021/05/03 06:53:14;;;;;;;9.32;0.80;;;13.30;46.40;;;;;;5052185;28;20055;-69
2021/05/03 06:55:46;;;;;;;0.82;0.50;;;13.20;47.00;;;;;;5036777;28;20030;-73
2021/05/03 06:58:13;;;;;;;1.85;0.52;;;13.40;47.10;;;;;;5042802;28;20528;-70
2021/05/03 07:00:40;;;;;;;0.80;0.43;;;13.40;46.20;;;;;;5049918;28;20080;-69
2021/05/03 07:03:07;;;;;;;0.80;0.50;;;13.30;45.70;;;;;;5051949;28;20104;-71
2021/05/03 07:05:33;;;;;;;0.30;0.30;;;13.30;46.00;;;;;;5051432;28;20431;-71
2021/05/03 07:07:59;;;;;;;0.57;0.40;;;13.20;46.60;;;;;;5037848;28;20017;-69
2021/05/03 07:10:25;;;;;;;14.65;1.08;;;13.00;46.60;;;;;;5051601;28;20037;-72
2021/05/03 07:12:51;;;;;;;3.20;0.45;;;12.80;46.60;;;;;;5051904;28;20032;-70
2021/05/03 07:15:17;;;;;;;0.95;0.50;;;12.90;47.10;;;;;;5047596;28;20437;-70
2021/05/03 07:17:45;;;;;;;0.90;0.40;;;12.80;46.90;;;;;;5033769;28;20025;-70
2021/05/03 07:20:12;;;;;;;1.02;0.40;;;12.60;47.30;;;;;;5048739;28;20025;-71
2021/05/03 07:22:38;;;;;;;1.08;0.50;;;12.50;47.30;;;;;;5050745;28;20036;-71
2021/05/03 07:25:07;;;;;;;8.88;0.70;;;12.40;47.40;;;;;;5050475;28;20075;-71
2021/05/03 07:27:33;;;;;;;0.65;0.40;;;12.40;47.90;;;;;;5051425;28;20860;-70
2021/05/03 07:29:59;;;;;;;0.95;0.60;;;12.50;47.50;;;;;;5051556;28;20025;-70
2021/05/03 07:32:24;;;;;;;7.00;0.68;;;12.50;47.10;;;;;;5046337;28;20485;-70
2021/05/03 07:34:50;;;;;;;6.20;0.65;;;12.40;47.60;;;;;;5032959;28;20040;-70
2021/05/03 07:37:16;;;;;;;2.50;0.40;;;12.20;47.70;;;;;;5031397;28;20033;-71
2021/05/03 07:39:43;;;;;;;3.10;0.47;;;12.00;47.70;;;;;;5049220;28;20017;-71
2021/05/03 07:42:10;;;;;;;2.90;0.70;;;11.90;48.30;;;;;;5040529;28;20026;-70
2021/05/03 07:44:36;;;;;;;5.35;1.08;;;12.00;48.30;;;;;;5047620;28;20082;-70
2021/05/03 07:47:03;;;;;;;1.95;0.60;;;11.80;48.30;;;;;;5037722;28;20396;-72
2021/05/03 07:49:30;;;;;;;1.88;0.40;;;11.80;48.60;;;;;;5050497;28;20021;-71
2021/05/03 07:51:56;;;;;;;1.95;0.70;;;11.70;48.20;;;;;;5050877;28;20480;-71
2021/05/03 07:54:21;;;;;;;2.90;0.40;;;11.60;48.10;;;;;;5050932;28;20052;-71
2021/05/03 07:56:48;;;;;;;2.33;0.47;;;11.60;47.80;;;;;;5051373;28;20033;-71
2021/05/03 07:59:13;;;;;;;1.85;0.60;;;11.60;47.30;;;;;;5050690;28;20465;-72
2021/05/03 08:01:39;;;;;;;4.75;0.43;;;11.60;48.20;;;;;;5050757;28;20025;-72
2021/05/03 08:04:05;;;;;;;0.52;0.45;;;11.80;47.80;;;;;;5051280;28;20025;-75
2021/05/03 08:06:31;;;;;;;5.00;0.60;;;11.90;47.80;;;;;;5050686;28;20082;-71
2021/05/03 08:09:04;;;;;;;6.15;0.70;;;11.80;51.40;;;;;;5050727;28;20116;-71
2021/05/03 08:11:30;;;;;;;3.38;0.70;;;11.90;52.10;;;;;;5050386;28;20024;-71
2021/05/03 08:13:56;;;;;;;1.25;0.40;;;12.10;49.70;;;;;;5050349;28;20052;-71
2021/05/03 08:16:23;;;;;;;0.50;0.50;;;12.20;49.00;;;;;;5050854;28;20025;-71
2021/05/03 08:18:49;;;;;;;8.57;0.63;;;12.20;49.40;;;;;;5050723;28;20064;-71
2021/05/03 08:21:14;;;;;;;0.90;0.47;;;12.20;48.70;;;;;;5050258;28;20056;-70
2021/05/03 08:23:41;;;;;;;2.83;0.80;;;12.10;49.70;;;;;;5050749;28;20512;-70
2021/05/03 08:26:08;;;;;;;1.17;0.60;;;12.00;48.90;;;;;;5050888;28;20627;-70
2021/05/03 08:28:33;;;;;;;4.72;0.65;;;11.90;48.60;;;;;;5050803;28;20033;-70
2021/05/03 08:30:59;;;;;;;3.88;0.60;;;11.60;48.80;;;;;;5041604;28;20025;-70
2021/05/03 08:33:25;;;;;;;3.42;0.80;;;11.50;49.80;;;;;;5037270;28;20480;-70
2021/05/03 08:35:51;;;;;;;13.48;1.05;;;11.30;50.30;;;;;;5050726;28;20025;-71
2021/05/03 08:38:18;;;;;;;10.35;1.10;;;11.30;50.10;;;;;;5050957;28;20104;-71
2021/05/03 08:40:45;;;;;;;7.70;0.77;;;11.30;50.60;;;;;;5050329;28;20022;-70
2021/05/03 08:43:11;;;;;;;0.45;0.40;;;11.50;51.50;;;;;;5050224;28;20397;-72
2021/05/03 08:45:38;;;;;;;1.38;0.73;;;11.20;49.80;;;;;;5052072;28;20128;-72
2021/05/03 08:53:12;;;;;;;0.93;0.50;;;10.70;51.00;;;;;;5038121;28;20071;-70
2021/05/03 08:55:38;;;;;;;1.42;0.80;;;10.60;51.10;;;;;;5051252;28;20028;-70
2021/05/03 08:58:04;;;;;;;4.07;0.60;;;10.30;51.60;;;;;;5052454;28;20029;-71
2021/05/03 09:00:30;;;;;;;1.58;0.73;;;10.30;51.40;;;;;;5044910;28;20028;-70
2021/05/03 09:02:59;;;;;;;7.13;1.00;;;10.40;51.80;;;;;;5046349;28;20044;-70
2021/05/03 09:05:25;;;;;;;1.35;0.50;;;10.30;52.10;;;;;;5046384;28;20063;-71
2021/05/03 09:07:51;;;;;;;1.77;0.80;;;10.30;52.40;;;;;;5053308;28;20096;-69
2021/05/03 09:10:20;;;;;;;24.42;1.63;;;10.30;52.00;;;;;;5047698;28;20025;-70
2021/05/03 09:12:47;;;;;;;4.00;1.13;;;10.10;52.80;;;;;;5045396;28;20029;-69
2021/05/03 09:15:19;;;;;;;3.08;0.80;;;10.10;53.70;;;;;;5040901;28;20056;-70
2021/05/03 09:17:44;;;;;;;7.07;0.93;;;10.20;54.50;;;;;;5053927;28;20122;-70
2021/05/03 09:20:17;;;;;;;8.77;1.77;;;10.00;54.50;;;;;;5054040;28;20076;-71
2021/05/03 09:22:55;;;;;;;6.13;1.15;;;9.80;54.50;;;;;;5047870;28;20116;-71
2021/05/03 09:25:39;;;;;;;3.40;0.98;;;9.70;55.20;;;;;;5050331;28;20032;-70
2021/05/03 09:28:08;;;;;;;0.52;0.52;;;9.60;55.70;;;;;;5041983;28;20059;-70
2021/05/03 09:30:42;;;;;;;7.78;1.08;;;9.70;55.20;;;;;;5052811;28;20100;-71
2021/05/03 09:33:28;;;;;;;14.07;1.25;;;9.80;55.30;;;;;;5034044;28;20044;-70
2021/05/03 09:35:59;;;;;;;7.90;1.20;;;9.50;55.00;;;;;;5048235;28;20021;-70
2021/05/03 09:38:38;;;;;;;4.22;1.10;;;9.40;55.90;;;;;;5045930;28;20051;-70
2021/05/03 09:41:11;;;;;;;5.47;1.17;;;9.30;56.70;;;;;;5048646;28;20013;-72
2021/05/03 09:43:48;;;;;;;2.60;1.25;;;9.30;56.40;;;;;;5053008;28;20493;-70
2021/05/03 09:46:28;;;;;;;6.10;1.70;;;9.20;56.90;;;;;;5048888;28;20056;-70
2021/05/03 09:48:54;;;;;;;;;;;9.00;57.40;;;;;;5043546;28;20049;-71
2021/05/03 09:51:41;;;;;;;7.78;1.80;;;8.90;57.40;;;;;;5050091;28;20270;-69
2021/05/03 09:54:08;;;;;;;10.75;1.30;;;8.50;58.20;;;;;;5053310;28;20043;-70
2021/05/03 09:56:45;;;;;;;10.32;1.20;;;8.40;58.80;;;;;;5038891;28;20021;-69
2021/05/03 09:59:34;;;;;;;4.97;1.08;;;8.40;59.50;;;;;;5038022;28;20053;-70
2021/05/03 10:02:04;;;;;;;5.63;1.40;;;8.40;60.00;;;;;;5043369;28;20043;-69
2021/05/03 10:04:31;;;;;;;5.03;1.40;;;8.50;59.50;;;;;;5038874;28;20441;-69
2021/05/03 10:06:57;;;;;;;2.22;1.10;;;8.50;60.90;;;;;;5051348;28;20036;-70
2021/05/03 10:09:24;;;;;;;3.17;0.90;;;8.40;60.50;;;;;;5052292;28;20029;-70
2021/05/03 10:11:50;;;;;;;1.90;1.10;;;8.30;61.20;;;;;;5052399;28;20083;-69
2021/05/03 10:14:16;;;;;;;21.33;3.13;;;7.90;61.50;;;;;;5052620;28;20048;-69
2021/05/03 10:16:42;;;;;;;3.92;0.90;;;7.70;62.40;;;;;;5052816;28;20091;-65
2021/05/03 10:19:08;;;;;;;2.60;1.02;;;8.10;69.40;;;;;;5053411;28;20039;-70
2021/05/03 10:21:34;;;;;;;6.60;1.45;;;9.60;64.80;;;;;;5038472;28;20025;-69
2021/05/03 10:24:01;;;;;;;7.05;1.30;;;9.20;61.80;;;;;;5052630;28;20021;-69
2021/05/03 10:26:28;;;;;;;2.55;1.02;;;8.60;62.50;;;;;;5038676;28;20036;-69
2021/05/03 10:28:55;;;;;;;4.43;1.23;;;8.00;64.60;;;;;;5037406;28;20064;-71
2021/05/03 10:31:22;;;;;;;2.83;1.15;;;7.60;66.20;;;;;;5045380;28;20104;-69
2021/05/03 10:33:48;;;;;;;1.90;1.00;;;7.30;68.00;;;;;;5052370;28;20067;-69
2021/05/03 10:36:38;;;;;;;21.17;1.85;;;7.20;69.10;;;;;;5036185;28;20460;-69
2021/05/03 10:39:27;;;;;;;2.13;1.25;;;7.10;70.60;;;;;;5049666;28;20017;-69
2021/05/03 10:42:08;;;;;;;2.00;1.13;;;6.90;71.40;;;;;;5048461;28;20036;-69
2021/05/03 10:44:36;;;;;;;1.15;0.88;;;6.80;72.00;;;;;;5050568;28;20029;-69
2021/05/03 10:47:54;;;;;;;18.98;1.70;;;6.70;73.10;;;;;;5050449;28;20047;-70
2021/05/03 10:53:40;;;;;;;1.90;1.23;;;6.60;77.00;;;;;;5050246;28;20044;-70
2021/05/03 10:56:08;;;;;;;5.53;1.15;;;6.80;80.00;;;;;;5060212;28;20060;-70
2021/05/03 10:58:52;;;;;;;2.63;0.93;;;6.80;77.30;;;;;;5051821;28;20025;-70
2021/05/03 11:01:18;;;;;;;4.03;1.58;;;6.90;82.70;;;;;;5051589;28;20021;-71
2021/05/03 11:03:58;;;;;;;5.13;1.40;;;7.10;78.90;;;;;;5051836;28;20029;-69
2021/05/03 11:06:36;;;;;;;1.10;0.90;;;7.10;79.60;;;;;;5047016;28;20473;-70
2021/05/03 11:11:59;;;;;;;7.82;1.20;;;6.80;77.40;;;;;;5051557;28;20099;-69
2021/05/03 11:14:32;;;;;;;16.63;1.42;;;6.80;78.10;;;;;;5051349;28;20481;-70
2021/05/03 11:17:05;;;;;;;7.78;1.27;;;6.80;78.60;;;;;;5051866;28;20028;-70
2021/05/03 11:22:15;;;;;;;10.40;1.48;;;6.60;76.60;;;;;;5031903;28;20041;-72
2021/05/03 11:24:47;;;;;;;2.40;0.90;;;6.60;77.30;;;;;;5031709;28;20029;-72
2021/05/03 11:27:31;;;;;;;8.07;1.20;;;6.70;76.50;;;;;;5037642;28;20100;-70
2021/05/03 11:30:08;;;;;;;10.40;1.23;;;6.70;74.80;;;;;;5035981;28;20037;-70
2021/05/03 11:32:39;;;;;;;13.23;1.33;;;6.80;75.70;;;;;;5033344;28;20041;-68
2021/05/03 11:35:23;;;;;;;4.25;1.13;;;6.90;76.00;;;;;;5033813;28;20291;-69
2021/05/03 11:37:58;;;;;;;3.53;1.20;;;6.70;75.60;;;;;;5039767;28;20029;-71
2021/05/03 11:43:11;;;;;;;13.40;1.67;;;6.70;75.60;;;;;;5045908;28;20626;-67
2021/05/03 11:45:39;;;;;;;3.67;1.52;;;6.70;75.10;;;;;;5038587;28;20072;-71
2021/05/03 11:48:05;;;;;;;44.40;3.90;;;6.80;74.60;;;;;;5049827;28;20021;-69
2021/05/03 11:50:31;;;;;;;13.95;2.92;;;6.60;73.50;;;;;;5050843;28;20029;-68
2021/05/03 11:52:57;;;;;;;2.35;1.33;;;6.60;74.60;;;;;;5051264;28;20443;-68
2021/05/03 11:55:25;;;;;;;4.75;1.20;;;6.70;74.80;;;;;;5050865;28;20121;-68
2021/05/03 11:57:52;;;;;;;1.33;0.95;;;6.70;74.70;;;;;;5050643;28;20126;-70
2021/05/03 12:00:26;;;;;;;5.57;1.40;;;6.70;75.30;;;;;;5050701;28;20475;-68
2021/05/03 12:03:07;;;;;;;5.55;1.10;;;6.60;76.50;;;;;;5051205;28;20048;-68
2021/05/03 12:05:34;;;;;;;2.85;1.02;;;6.50;77.30;;;;;;5043245;28;20025;-70
2021/05/03 12:08:15;;;;;;;2.00;0.82;;;6.40;77.60;;;;;;5046299;28;20495;-69
2021/05/03 12:10:41;;;;;;;6.55;1.15;;;6.40;78.40;;;;;;5050720;28;20037;-69
2021/05/03 12:13:18;;;;;;;5.85;1.40;;;6.50;77.70;;;;;;5051037;28;20104;-72
2021/05/03 12:15:44;;;;;;;13.88;1.90;;;6.60;79.20;;;;;;5050802;28;20055;-70
2021/05/03 12:18:17;;;;;;;5.03;1.35;;;6.70;76.20;;;;;;5050887;28;20016;-71
2021/05/03 12:20:43;;;;;;;7.03;1.30;;;6.80;77.10;;;;;;5054606;28;20031;-71
2021/05/03 12:23:09;;;;;;;4.50;1.23;;;6.80;74.60;;;;;;5057791;28;20104;-68
2021/05/03 12:25:51;;;;;;;14.50;2.20;;;6.80;73.80;;;;;;5057536;28;20036;-72
2021/05/03 12:28:23;;;;;;;7.57;1.67;;;6.80;73.40;;;;;;5057159;28;20499;-71
2021/05/03 12:30:50;;;;;;;4.30;1.10;;;6.70;72.30;;;;;;5057587;28;20087;-70
2021/05/03 12:33:18;;;;;;;3.47;1.20;;;6.60;72.10;;;;;;5047783;28;20034;-71
2021/05/03 12:35:54;;;;;;;5.05;1.13;;;6.60;71.70;;;;;;5045073;28;20052;-68
2021/05/03 12:38:25;;;;;;;9.15;1.30;;;6.60;72.80;;;;;;5057340;28;20029;-68
2021/05/03 12:40:56;;;;;;;5.82;1.35;;;6.70;71.80;;;;;;5057148;28;20100;-68
2021/05/03 12:43:28;;;;;;;53.25;3.50;;;6.70;70.70;;;;;;5057055;28;20033;-68
2021/05/03 12:56:55;;;;;;;6.82;0.85;;;6.50;68.30;;;;;;5056940;28;20036;-70
2021/05/03 12:59:32;;;;;;;1.33;0.50;;;6.60;67.70;;;;;;5056654;28;20040;-69
2021/05/03 13:02:36;;;;;;;3.08;0.63;;;6.60;67.50;;;;;;5056965;28;20121;-68
2021/05/03 13:24:49;;;;;;;294.15;13.45;;;6.80;65.50;;;;;;5058388;28;20114;-69
2021/05/03 13:30:17;;;;;;;8.02;0.70;;;6.80;65.20;;;;;;5054083;28;20043;-69
2021/05/03 13:32:43;;;;;;;3.53;0.80;;;6.90;64.50;;;;;;5050145;28;20459;-69
2021/05/03 13:35:09;;;;;;;1.77;0.60;;;7.00;63.80;;;;;;5033968;28;20104;-69
2021/05/03 13:37:35;;;;;;;0.50;0.50;;;6.90;63.50;;;;;;5053202;28;20563;-69
2021/05/03 13:40:01;;;;;;;0.80;0.50;;;7.00;63.30;;;;;;5053063;28;20036;-69
2021/05/03 13:42:26;;;;;;;0.50;0.50;;;7.00;64.70;;;;;;5053125;28;20025;-69
2021/05/03 13:44:52;;;;;;;6.13;0.90;;;7.10;63.20;;;;;;5053480;28;20029;-69
2021/05/03 13:47:18;;;;;;;3.95;0.50;;;7.00;61.90;;;;;;5053124;28;20439;-69
2021/05/03 13:49:44;;;;;;;0.40;0.40;;;6.90;62.10;;;;;;5053353;28;20108;-69
2021/05/03 13:52:10;;;;;;;0.50;0.40;;;6.80;62.10;;;;;;5053041;28;20032;-69
2021/05/03 13:54:36;;;;;;;19.48;1.05;;;6.80;62.80;;;;;;5049565;28;20030;-69
2021/05/03 13:57:06;;;;;;;5.75;0.93;;;6.90;63.30;;;;;;5035533;28;20029;-69
2021/05/03 13:59:32;;;;;;;0.93;0.50;;;7.10;66.00;;;;;;5046444;28;20458;-70
2021/05/03 14:01:59;;;;;;;25.92;1.48;;;7.10;63.50;;;;;;5052923;28;20652;-69
2021/05/03 14:04:25;;;;;;;5.55;0.82;;;7.10;63.30;;;;;;5051319;28;20025;-69
2021/05/03 14:06:57;;;;;;;4.50;0.82;;;7.10;63.80;;;;;;5034375;28;20060;-69
2021/05/03 14:09:24;;;;;;;0.63;0.40;;;7.10;64.90;;;;;;5051618;28;20064;-73
2021/05/03 14:11:50;;;;;;;1.00;0.40;;;7.00;63.40;;;;;;5052963;28;20049;-73
2021/05/03 14:14:16;;;;;;;0.40;0.40;;;7.00;63.30;;;;;;5052688;28;20087;-74
2021/05/03 14:16:42;;;;;;;0.40;0.40;;;6.90;63.30;;;;;;5045931;28;20057;-73
2021/05/03 14:19:14;;;;;;;5.15;0.60;;;6.90;63.80;;;;;;5046673;28;20150;-73
2021/05/03 14:21:40;;;;;;;0.40;0.40;;;6.80;63.40;;;;;;5039617;28;20032;-73
2021/05/03 14:24:06;;;;;;;4.97;0.85;;;6.50;63.80;;;;;;5053298;28;20393;-73
2021/05/03 14:26:34;;;;;;;1.33;0.40;;;6.50;65.60;;;;;;5052715;28;20032;-73
2021/05/03 14:29:12;;;;;;;3.03;0.50;;;6.50;66.00;;;;;;5052863;28;20033;-73
2021/05/03 14:31:55;;;;;;;0.50;0.47;;;6.50;65.70;;;;;;5052465;28;20461;-71
2021/05/03 14:34:32;;;;;;;1.15;0.60;;;6.50;66.20;;;;;;5035030;28;20045;-70
2021/05/03 14:36:58;;;;;;;0.60;0.40;;;6.40;66.50;;;;;;5050123;28;20012;-70
2021/05/03 14:39:24;;;;;;;2.60;0.50;;;6.30;66.30;;;;;;5052814;28;20025;-71
2021/05/03 14:41:50;;;;;;;4.03;0.50;;;6.30;66.60;;;;;;5051475;28;20485;-70
2021/05/03 14:44:17;;;;;;;2.10;0.50;;;6.20;67.00;;;;;;5038913;28;20025;-72
2021/05/03 14:46:49;;;;;;;4.97;0.73;;;6.20;67.10;;;;;;5039456;28;20025;-70
2021/05/03 14:52:01;;;;;;;4.65;0.50;;;6.20;67.40;;;;;;5052496;28;20047;-71
2021/05/03 14:54:41;;;;;;;1.58;0.40;;;6.20;67.60;;;;;;5048954;28;20025;-71
2021/05/03 14:57:09;;;;;;;2.85;0.50;;;6.30;67.00;;;;;;5052166;28;20021;-70
2021/05/03 14:59:36;;;;;;;0.63;0.45;;;6.30;66.30;;;;;;5046634;28;20744;-70
2021/05/03 15:02:02;;;;;;;1.17;0.50;;;6.30;66.20;;;;;;5035806;28;20037;-70
2021/05/03 15:04:30;;;;;;;1.65;0.40;;;6.30;66.00;;;;;;5051613;28;20047;-70
2021/05/03 15:07:08;;;;;;;0.45;0.45;;;6.30;66.90;;;;;;5052361;28;20021;-70
2021/05/03 15:09:39;;;;;;;0.50;0.40;;;6.30;66.80;;;;;;5040746;28;20740;-70
2021/05/03 15:12:12;;;;;;;;;;;6.20;67.40;;;;;;5041864;28;20573;-70
2021/05/03 15:22:16;;;;;;;2.05;0.50;;;6.20;67.20;;;;;;5042625;28;20139;-70
2021/05/03 15:24:42;;;;;;;1.95;0.40;;;6.00;67.10;;;;;;5051759;28;20470;-71
2021/05/03 15:27:18;;;;;;;1.00;0.40;;;6.20;68.10;;;;;;5050879;28;20048;-72
2021/05/03 15:30:03;;;;;;;1.88;0.40;;;6.20;68.60;;;;;;5051779;28;20037;-70
2021/05/03 15:35:08;;;;;;;1.63;0.50;;;6.40;68.40;;;;;;5047355;28;20032;-71
2021/05/03 15:37:35;;;;;;;4.68;0.60;;;6.40;67.90;;;;;;5040277;28;20104;-71
2021/05/03 15:40:02;;;;;;;0.52;0.40;;;6.50;67.90;;;;;;5043079;28;20027;-70
2021/05/03 15:42:28;;;;;;;7.03;1.70;;;6.40;66.90;;;;;;5036116;28;20033;-70
2021/05/03 15:44:55;;;;;;;0.90;0.50;;;6.50;73.30;;;;;;5039394;28;20025;-71
2021/05/03 15:47:21;;;;;;;0.30;0.30;;;7.60;84.70;;;;;;5051136;28;20064;-71
2021/05/03 15:49:47;;;;;;;0.40;0.40;;;7.40;68.10;;;;;;5031967;28;20053;-73
2021/05/03 15:52:13;;;;;;;0.65;0.30;;;7.00;66.60;;;;;;5049712;28;20382;-74
2021/05/03 15:54:42;;;;;;;0.85;0.40;;;6.80;66.10;;;;;;5051121;28;20017;-74
2021/05/03 15:57:08;;;;;;;1.77;0.63;;;6.60;65.90;;;;;;5051532;28;20071;-69
2021/05/03 15:59:34;;;;;;;1.98;0.70;;;6.40;66.00;;;;;;5051362;28;20021;-71
2021/05/03 16:02:01;;;;;;;0.52;0.52;;;6.40;66.50;;;;;;5051657;28;20028;-71
2021/05/03 16:04:28;;;;;;;0.85;0.50;;;6.40;66.80;;;;;;5051495;28;20025;-71
2021/05/03 16:06:53;;;;;;;0.50;0.50;;;6.40;67.40;;;;;;5067130;28;20082;-71
2021/05/03 16:09:19;;;;;;;0.50;0.50;;;6.40;66.60;;;;;;5049673;28;20115;-71
2021/05/03 16:11:46;;;;;;;22.83;1.30;;;6.30;66.40;;;;;;5045928;28;20021;-71
2021/05/03 16:14:12;;;;;;;3.80;0.70;;;6.30;67.20;;;;;;5049752;28;20051;-71
2021/05/03 16:16:38;;;;;;;1.33;0.40;;;6.40;68.20;;;;;;5051419;28;20021;-71
2021/05/03 16:19:04;;;;;;;0.63;0.60;;;6.40;66.20;;;;;;5051400;28;20029;-71
2021/05/03 16:21:29;;;;;;;1.48;0.70;;;6.50;66.00;;;;;;5051576;28;20071;-72
2021/05/03 16:23:57;;;;;;;0.50;0.50;;;6.60;69.70;;;;;;5051531;28;20499;-72
2021/05/03 16:26:23;;;;;;;1.42;0.80;;;6.60;66.10;;;;;;5051273;28;20029;-71
2021/05/03 16:28:50;;;;;;;0.47;0.40;;;6.50;65.00;;;;;;5048616;28;20104;-72
2021/05/03 16:31:16;;;;;;;0.93;0.40;;;6.50;64.80;;;;;;5046550;28;20029;-72
2021/05/03 16:33:42;;;;;;;0.82;0.57;;;6.40;64.40;;;;;;5043464;28;20127;-72
2021/05/03 16:36:08;;;;;;;2.22;0.70;;;6.30;64.10;;;;;;5047584;28;20473;-71
2021/05/03 16:38:34;;;;;;;0.47;0.45;;;6.30;64.10;;;;;;5049072;28;20051;-72
2021/05/03 16:40:59;;;;;;;0.50;0.50;;;6.30;63.90;;;;;;5051273;28;20391;-71
2021/05/03 16:43:25;;;;;;;1.98;0.60;;;6.20;63.70;;;;;;5047476;28;20105;-71
2021/05/03 16:45:52;;;;;;;0.85;0.52;;;6.10;64.10;;;;;;5033473;28;20029;-72
2021/05/03 16:48:18;;;;;;;1.00;0.45;;;6.10;64.40;;;;;;5036078;28;20032;-72
2021/05/03 16:50:45;;;;;;;1.23;0.52;;;6.10;64.40;;;;;;5033334;28;20025;-71
2021/05/03 16:53:12;;;;;;;2.58;0.68;;;6.10;64.40;;;;;;5047134;28;20510;-71
2021/05/03 16:55:38;;;;;;;1.10;0.50;;;6.10;64.60;;;;;;5051116;28;20032;-72
2021/05/03 16:58:07;;;;;;;1.75;0.65;;;6.10;64.50;;;;;;5051354;28;20033;-71
2021/05/03 17:00:34;;;;;;;2.22;0.60;;;6.00;64.50;;;;;;5050618;28;20100;-71
2021/05/03 17:03:00;;;;;;;0.50;0.50;;;5.90;64.90;;;;;;5051222;28;20036;-71
2021/05/03 17:05:25;;;;;;;2.03;0.47;;;5.80;65.00;;;;;;5050866;28;20025;-71
2021/05/03 17:07:51;;;;;;;0.45;0.43;;;5.80;65.40;;;;;;5053944;28;20021;-71
2021/05/03 17:10:17;;;;;;;2.00;0.40;;;5.70;65.20;;;;;;5055115;28;20377;-72
2021/05/03 17:12:43;;;;;;;0.57;0.50;;;5.60;65.70;;;;;;5053188;28;20110;-70
2021/05/03 17:15:09;;;;;;;0.77;0.57;;;5.60;66.20;;;;;;5054416;28;20053;-72
2021/05/03 17:17:37;;;;;;;1.27;0.60;;;5.60;66.00;;;;;;5054116;28;20116;-72
2021/05/03 17:20:09;;;;;;;2.28;0.70;;;5.60;66.10;;;;;;5054644;28;20024;-72
2021/05/03 17:22:35;;;;;;;3.40;0.75;;;5.60;66.40;;;;;;5054377;28;20029;-72
2021/05/03 17:25:02;;;;;;;0.73;0.50;;;5.60;66.80;;;;;;5054463;28;20021;-71
2021/05/03 17:27:28;;;;;;;1.00;0.50;;;5.60;66.90;;;;;;5054779;28;20040;-71
2021/05/03 17:29:53;;;;;;;0.75;0.47;;;5.60;66.60;;;;;;5054487;28;20013;-71
2021/05/03 17:32:19;;;;;;;0.52;0.40;;;5.70;66.90;;;;;;5044043;28;20041;-71
2021/05/03 17:34:45;;;;;;;1.08;0.50;;;5.60;66.90;;;;;;5033899;28;20080;-71
2021/05/03 17:37:10;;;;;;;2.53;0.57;;;5.50;67.10;;;;;;5042036;28;20025;-71
2021/05/03 17:39:36;;;;;;;3.72;0.52;;;5.50;67.50;;;;;;5054320;28;20021;-71
2021/05/03 17:42:02;;;;;;;1.33;0.50;;;5.50;67.90;;;;;;5054086;28;20517;-72
2021/05/03 17:44:28;;;;;;;0.80;0.57;;;5.50;68.10;;;;;;5054044;28;20021;-71
2021/05/03 17:46:53;;;;;;;0.40;0.40;;;5.40;68.30;;;;;;5051669;28;20033;-71
2021/05/03 17:49:19;;;;;;;1.08;0.65;;;5.50;68.60;;;;;;5053690;28;20045;-71
2021/05/03 17:51:45;;;;;;;0.82;0.70;;;5.50;68.90;;;;;;5056039;28;20050;-71
2021/05/03 17:54:12;;;;;;;24.90;10.20;;;5.50;69.20;;;;;;5048546;28;20017;-71
2021/05/03 17:56:37;;;;;;;6.65;3.13;;;5.50;71.40;;;;;;5042352;28;20068;-70
2021/05/03 17:59:04;;;;;;;22.55;7.25;;;5.80;74.10;;;;;;5056698;28;20056;-71
2021/05/03 18:01:32;;;;;;;8.02;1.90;;;5.70;71.50;;;;;;5052851;28;20025;-70
2021/05/03 18:03:58;;;;;;;4.32;0.95;;;5.60;71.60;;;;;;5052105;28;20476;-71
2021/05/03 18:06:25;;;;;;;11.27;4.78;;;5.50;72.10;;;;;;5054686;28;20061;-70
2021/05/03 18:08:53;;;;;;;23.02;11.90;;;5.50;72.20;;;;;;5052070;28;20082;-70
2021/05/03 18:11:19;;;;;;;13.93;9.25;;;5.50;72.00;;;;;;5052591;28;20602;-70
2021/05/03 18:13:45;;;;;;;7.68;4.35;;;5.50;72.00;;;;;;5047778;28;20091;-70
2021/05/03 18:16:11;;;;;;;6.20;2.30;;;5.60;71.70;;;;;;5050521;28;20025;-71
2021/05/03 18:18:37;;;;;;;5.35;2.97;;;5.60;71.50;;;;;;5052001;28;20550;-70
2021/05/03 18:21:10;;;;;;;6.80;1.50;;;5.60;71.50;;;;;;5050220;28;20148;-70
2021/05/03 18:23:47;;;;;;;3.25;1.05;;;5.60;71.70;;;;;;5053083;28;20029;-69
2021/05/03 18:26:14;;;;;;;2.38;0.90;;;5.60;71.80;;;;;;5052792;28;20051;-70